Time;durP1;ratioP1;P1;durP2;ratioP2;P2;SDS_P1;SDS_P2;PMS_P1;PMS_P2;Temp;Humidity;BMP_temperature;BMP_pressure;BME280_temperature;BME280_humidity;BME280_pressure;Samples;Min_cycle;Max_cycle;Signal;HPM_P1;HPM_P2
2023/09/07 00:03:13;;;;;;;16.52;7.80;;;;;;;29.28;43.34;100762.72;21066786;28;20052;-60
2023/09/07 00:13:14;;;;;;;13.52;7.65;;;;;;;29.43;42.79;100781.00;21028604;28;20024;-59
2023/09/07 00:23:16;;;;;;;8.30;6.78;;;;;;;29.51;42.48;100799.84;21060384;28;20192;-61
2023/09/07 00:33:20;;;;;;;9.90;7.18;;;;;;;29.53;42.61;100803.13;21071743;28;20371;-61
2023/09/07 00:43:24;;;;;;;7.50;6.57;;;;;;;29.48;42.50;100794.88;21028070;28;20028;-60
2023/09/07 00:53:27;;;;;;;8.45;6.70;;;;;;;29.49;42.69;100802.16;21070716;28;20032;-62
2023/09/07 01:03:34;;;;;;;11.20;6.80;;;;;;;29.34;42.53;100775.44;21056249;28;20040;-62
2023/09/07 01:13:35;;;;;;;10.00;6.72;;;;;;;29.60;42.67;100821.19;20992635;28;20048;-60
2023/09/07 01:23:38;;;;;;;7.40;6.57;;;;;;;29.63;42.31;100814.03;21046627;28;20088;-59
2023/09/07 01:33:40;;;;;;;7.55;6.30;;;;;;;29.62;42.18;100820.84;21007943;28;20041;-59
2023/09/07 01:43:41;;;;;;;10.13;6.88;;;;;;;29.66;42.08;100810.53;21049870;28;20044;-61
2023/09/07 01:53:43;;;;;;;11.23;6.93;;;;;;;29.65;41.85;100797.63;21080144;28;20058;-60
2023/09/07 02:03:44;;;;;;;7.22;6.53;;;;;;;29.66;41.80;100798.44;21065957;28;20044;-60
2023/09/07 02:13:47;;;;;;;8.35;6.50;;;;;;;29.57;41.90;100792.84;21066610;28;20052;-60
2023/09/07 02:23:49;;;;;;;8.38;6.28;;;;;;;29.62;41.90;100801.09;21061276;28;20047;-59
2023/09/07 02:33:53;;;;;;;7.78;6.25;;;;;;;29.67;41.59;100809.34;21086100;28;20052;-60
2023/09/07 02:43:54;;;;;;;6.88;6.07;;;;;;;29.67;41.52;100797.25;21071179;28;20056;-60
2023/09/07 02:53:56;;;;;;;6.55;5.82;;;;;;;29.68;41.43;100791.25;21077990;28;20101;-60
2023/09/07 03:03:57;;;;;;;6.90;6.30;;;;;;;29.68;41.25;100781.97;21084420;28;20036;-59
2023/09/07 03:13:59;;;;;;;6.43;5.82;;;;;;;29.60;41.23;100763.97;21040913;28;20035;-60
2023/09/07 03:24:00;;;;;;;7.20;6.05;;;;;;;29.69;41.63;100790.13;21074460;28;20036;-60
2023/09/07 03:34:05;;;;;;;9.13;5.22;;;;;;;29.71;41.88;100770.84;21079313;28;20449;-61
2023/09/07 03:44:07;;;;;;;6.22;5.63;;;;;;;29.71;41.82;100759.56;21076239;28;20036;-66
2023/09/07 03:54:08;;;;;;;6.70;6.10;;;;;;;29.71;41.86;100748.28;21076143;28;20040;-60
2023/09/07 04:04:09;;;;;;;6.22;5.63;;;;;;;29.69;42.17;100739.34;21078880;28;20075;-60
2023/09/07 04:14:11;;;;;;;6.75;5.35;;;;;;;29.73;41.94;100751.56;21075326;28;20036;-60
2023/09/07 04:24:12;;;;;;;6.00;5.50;;;;;;;29.71;41.99;100741.81;21073828;28;20445;-60
2023/09/07 04:34:13;;;;;;;6.70;5.65;;;;;;;29.71;41.93;100741.81;21076782;28;20028;-60
2023/09/07 04:44:17;;;;;;;6.40;5.85;;;;;;;29.69;41.91;100739.34;21072968;28;20055;-59
2023/09/07 04:54:19;;;;;;;6.13;5.57;;;;;;;29.70;42.12;100746.63;21073776;28;20044;-59
2023/09/07 05:04:20;;;;;;;5.88;5.38;;;;;;;29.68;41.91;100740.50;21075010;28;20151;-59
2023/09/07 05:14:24;;;;;;;7.78;6.25;;;;;;;29.50;41.82;100708.78;21072495;28;20040;-61
2023/09/07 05:24:26;;;;;;;6.80;5.88;;;;;;;29.66;41.78;100744.84;21073857;28;20048;-60
2023/09/07 05:34:29;;;;;;;7.18;5.82;;;;;;;29.63;41.58;100740.72;21074816;28;20036;-60
2023/09/07 05:44:31;;;;;;;5.90;5.30;;;;;;;29.63;41.46;100737.91;21071885;28;20052;-61
2023/09/07 05:54:38;;;;;;;5.80;5.30;;;;;;;29.56;41.50;100729.19;21073372;28;20040;-61
2023/09/07 06:04:44;;;;;;;5.50;5.00;;;;;;;29.61;41.25;100752.34;21072728;28;20101;-60
2023/09/07 06:14:46;;;;;;;5.63;5.13;;;;;;;29.57;41.08;100753.38;21085480;28;20539;-60
2023/09/07 06:24:47;;;;;;;5.57;5.07;;;;;;;29.58;40.96;100741.75;21086812;28;20055;-60
2023/09/07 06:34:49;;;;;;;6.47;5.68;;;;;;;29.60;40.97;100749.88;21085174;28;20040;-61
2023/09/07 06:44:53;;;;;;;5.45;4.95;;;;;;;29.56;40.92;100749.75;21081530;28;20048;-59
2023/09/07 06:54:54;;;;;;;5.53;5.03;;;;;;;29.58;40.71;100746.56;21077333;28;20048;-59
2023/09/07 07:04:55;;;;;;;5.03;4.57;;;;;;;29.51;40.88;100735.81;21081609;28;20044;-60
2023/09/07 07:14:57;;;;;;;6.30;5.40;;;;;;;29.53;40.76;100741.13;21079126;28;20032;-59
2023/09/07 07:25:00;;;;;;;5.63;5.13;;;;;;;29.51;40.77;100749.94;21054830;28;20039;-60
2023/09/07 07:35:03;;;;;;;6.10;4.80;;;;;;;29.42;40.88;100742.72;21080783;28;20067;-61
2023/09/07 07:45:05;;;;;;;5.35;4.85;;;;;;;29.50;40.86;100758.72;21080995;28;20101;-59
2023/09/07 07:55:07;;;;;;;5.20;4.70;;;;;;;29.49;40.98;100757.06;21080334;28;20032;-60
2023/09/07 08:05:14;;;;;;;5.00;4.50;;;;;;;29.48;40.61;100755.41;21078204;28;20444;-63
2023/09/07 08:15:15;;;;;;;5.38;4.88;;;;;;;29.48;40.55;100744.97;21076827;28;20113;-59
2023/09/07 08:25:17;;;;;;;5.35;4.85;;;;;;;29.49;40.37;100754.25;21074768;28;20089;-59
2023/09/07 08:35:26;;;;;;;4.93;4.43;;;;;;;29.46;40.39;100760.56;21046063;28;20117;-60
2023/09/07 08:45:31;;;;;;;4.70;4.22;;;;;;;29.38;40.33;100751.84;21074531;28;20048;-60
2023/09/07 08:55:33;;;;;;;5.20;4.70;;;;;;;29.42;40.40;100762.44;21075551;28;20044;-60
2023/09/07 09:05:38;;;;;;;4.95;4.45;;;;;;;29.40;40.57;100764.75;21074129;28;20051;-63
2023/09/07 09:15:40;;;;;;;5.68;4.68;;;;;;;29.40;40.10;100767.59;21050157;28;20117;-60
2023/09/07 09:25:44;;;;;;;5.13;4.63;;;;;;;29.32;40.32;100760.84;21067678;28;20490;-60
2023/09/07 09:35:45;;;;;;;6.15;4.65;;;;;;;29.34;40.28;100781.06;21072987;28;20020;-60
2023/09/07 09:45:55;;;;;;;5.32;4.82;;;;;;;29.28;40.41;100769.16;21079242;28;20483;-60
2023/09/07 09:55:57;;;;;;;4.85;4.40;;;;;;;29.37;40.22;100781.22;21085455;28;20101;-62
2023/09/07 10:06:22;;;;;;;5.82;5.22;;;;;;;29.28;40.79;100769.16;21079664;28;20052;-60
2023/09/07 10:16:24;;;;;;;6.45;4.88;;;;;;;29.30;40.96;100783.72;21079889;28;20483;-59
2023/09/07 10:26:25;;;;;;;5.97;4.57;;;;;;;29.35;41.29;100808.06;21077807;28;20368;-60
2023/09/07 10:36:27;;;;;;;5.32;4.72;;;;;;;29.29;41.52;100821.53;21083907;28;20048;-60
2023/09/07 10:46:29;;;;;;;5.47;4.90;;;;;;;28.92;41.71;100763.25;21080123;28;20109;-60
2023/09/07 10:56:30;;;;;;;5.30;4.80;;;;;;;29.34;41.67;100834.63;21036384;28;20040;-59
2023/09/07 11:06:32;;;;;;;8.65;5.30;;;;;;;29.30;42.31;100836.47;21069978;28;20067;-60
2023/09/07 11:16:34;;;;;;;8.50;5.60;;;;;;;29.29;43.22;100807.44;21075682;28;20129;-59
2023/09/07 11:26:43;;;;;;;10.05;6.45;;;;;;;29.56;43.96;100856.06;21072306;28;20074;-61
2023/09/07 11:36:44;;;;;;;8.68;6.82;;;;;;;29.61;44.58;100845.41;21047776;28;20388;-60
2023/09/07 11:46:46;;;;;;;12.70;7.38;;;;;;;29.73;45.13;100858.72;21067897;28;20036;-60
2023/09/07 11:56:47;;;;;;;7.63;6.38;;;;;;;29.85;45.46;100853.16;21078529;28;20539;-61
2023/09/07 12:06:49;;;;;;;11.23;8.00;;;;;;;29.83;45.67;100849.88;21075899;28;20440;-60
2023/09/07 12:16:53;;;;;;;9.77;7.82;;;;;;;29.99;45.56;100864.19;21076167;28;20048;-61
2023/09/07 12:26:54;;;;;;;12.95;7.20;;;;;;;30.02;45.57;100865.50;21077657;28;20040;-61
2023/09/07 12:36:56;;;;;;;10.82;7.72;;;;;;;30.03;45.68;100850.22;21076805;28;20039;-61
2023/09/07 12:46:57;;;;;;;10.05;7.47;;;;;;;30.07;45.81;100857.63;21076527;28;20032;-60
2023/09/07 12:57:01;;;;;;;8.23;7.43;;;;;;;30.15;45.68;100861.59;21077001;28;20032;-61
2023/09/07 13:07:03;;;;;;;8.55;7.57;;;;;;;30.20;45.77;100850.09;21076249;28;20040;-60
2023/09/07 13:17:07;;;;;;;8.60;7.60;;;;;;;30.25;45.91;100866.81;21080856;28;20552;-60
2023/09/07 13:27:09;;;;;;;9.00;7.97;;;;;;;30.28;45.99;100857.63;21092727;28;20070;-59
2023/09/07 13:37:11;;;;;;;9.20;8.05;;;;;;;30.31;46.17;100862.56;21092080;28;20129;-61
2023/09/07 13:47:15;;;;;;;9.68;8.77;;;;;;;30.36;46.33;100865.19;21091227;28;20101;-61
2023/09/07 13:57:17;;;;;;;10.00;8.63;;;;;;;30.41;46.58;100866.97;21090059;28;20036;-60
2023/09/07 14:07:19;;;;;;;9.13;8.18;;;;;;;30.45;46.52;100873.56;21089499;28;20040;-60
2023/09/07 14:17:20;;;;;;;9.93;8.95;;;;;;;30.45;46.87;100873.56;21088646;28;20098;-60
2023/09/07 14:27:21;;;;;;;12.73;9.18;;;;;;;30.54;46.95;100879.13;21087274;28;20437;-61
2023/09/07 14:37:23;;;;;;;10.23;9.07;;;;;;;30.34;47.10;100839.31;21087203;28;20027;-60
2023/09/07 14:47:26;;;;;;;10.52;9.57;;;;;;;30.54;47.00;100859.34;21086007;28;20387;-61
2023/09/07 14:57:27;;;;;;;10.50;9.40;;;;;;;30.65;47.30;100860.53;21083997;28;20036;-60
2023/09/07 15:07:29;;;;;;;11.02;9.93;;;;;;;30.72;47.17;100860.84;21084634;28;20548;-61
2023/09/07 15:17:30;;;;;;;11.05;10.00;;;;;;;30.67;47.50;100844.09;21083867;28;20028;-61
2023/09/07 15:27:31;;;;;;;11.02;9.95;;;;;;;30.45;47.46;100804.97;21082993;28;20028;-60
2023/09/07 15:37:33;;;;;;;12.23;10.95;;;;;;;30.69;47.53;100855.84;21075538;28;20044;-61
2023/09/07 15:47:35;;;;;;;12.45;10.63;;;;;;;30.84;47.80;100858.03;21074867;28;20039;-61
2023/09/07 15:57:39;;;;;;;12.18;10.98;;;;;;;30.93;47.72;100852.28;21079773;28;20044;-61
2023/09/07 16:07:57;;;;;;;11.23;10.13;;;;;;;30.99;47.58;100841.56;21150665;27;20941;-63
2023/09/07 16:17:58;;;;;;;12.90;11.70;;;;;;;31.01;47.95;100817.41;21149811;28;20085;-61
2023/09/07 16:28:00;;;;;;;13.65;12.35;;;;;;;31.10;48.02;100820.13;21148640;28;20036;-60
2023/09/07 16:38:01;;;;;;;13.35;11.95;;;;;;;31.13;47.97;100805.31;21148743;28;20101;-62
2023/09/07 16:48:03;;;;;;;13.30;12.00;;;;;;;31.13;47.96;100782.69;21147824;28;20058;-61
2023/09/07 16:58:04;;;;;;;12.98;11.77;;;;;;;31.21;47.92;100769.63;21146559;28;20043;-62
2023/09/07 17:08:06;;;;;;;13.93;12.63;;;;;;;31.20;48.05;100768.75;21145635;28;20097;-61
2023/09/07 17:18:07;;;;;;;13.77;12.43;;;;;;;31.27;47.89;100760.56;21094167;28;20036;-59
2023/09/07 17:28:09;;;;;;;13.93;12.63;;;;;;;31.27;47.98;100743.59;21088246;28;20040;-60
2023/09/07 17:38:10;;;;;;;14.65;13.27;;;;;;;31.33;47.83;100738.50;21086299;28;20078;-60
2023/09/07 17:48:11;;;;;;;14.65;13.10;;;;;;;31.31;47.89;100721.09;21086397;28;20085;-60
2023/09/07 17:58:18;;;;;;;14.48;13.02;;;;;;;31.42;47.69;100719.38;21085131;28;20476;-60
2023/09/07 18:08:20;;;;;;;14.65;13.25;;;;;;;31.44;47.51;100716.22;21085125;28;20036;-60
2023/09/07 18:18:21;;;;;;;13.98;12.57;;;;;;;31.51;47.37;100699.44;21083596;28;20093;-61
2023/09/07 18:28:23;;;;;;;14.40;12.90;;;;;;;31.56;47.30;100690.69;21082022;28;20391;-61
2023/09/07 18:38:24;;;;;;;13.93;12.35;;;;;;;31.56;47.29;100679.38;21082495;28;20036;-61
2023/09/07 18:48:25;;;;;;;14.50;13.20;;;;;;;31.62;46.91;100672.31;21081213;28;20047;-61
2023/09/07 18:58:27;;;;;;;14.52;13.23;;;;;;;31.65;46.92;100654.59;21080363;28;20436;-60
2023/09/07 19:08:29;;;;;;;14.43;12.98;;;;;;;31.59;46.69;100620.09;21080164;28;20093;-61
2023/09/07 19:18:33;;;;;;;14.30;13.05;;;;;;;31.73;46.84;100639.47;21079144;28;20083;-60
2023/09/07 19:28:34;;;;;;;14.40;13.05;;;;;;;31.76;46.64;100638.75;21076391;28;20040;-60
2023/09/07 19:38:36;;;;;;;14.02;12.73;;;;;;;31.79;46.42;100652.16;21073555;28;20395;-60
2023/09/07 19:48:38;;;;;;;13.98;12.73;;;;;;;31.82;46.43;100651.47;21036296;28;20036;-62
2023/09/07 19:58:40;;;;;;;14.57;13.13;;;;;;;31.83;46.48;100633.31;21072815;28;20048;-62
2023/09/07 20:08:41;;;;;;;14.45;13.05;;;;;;;31.84;46.58;100605.81;21076095;28;20032;-60
2023/09/07 20:18:45;;;;;;;13.55;12.35;;;;;;;31.87;46.43;100596.63;21068891;28;20036;-61
2023/09/07 20:28:48;;;;;;;14.32;12.93;;;;;;;31.91;46.34;100602.38;21063447;28;20032;-60
2023/09/07 20:38:50;;;;;;;14.73;13.20;;;;;;;31.90;46.09;100615.72;21075655;28;20113;-60
2023/09/07 20:48:51;;;;;;;14.48;13.07;;;;;;;31.90;45.98;100617.72;21080743;28;20047;-61
2023/09/07 20:58:53;;;;;;;14.35;12.98;;;;;;;31.91;45.83;100622.19;21086272;28;20040;-60
2023/09/07 21:08:55;;;;;;;12.77;11.57;;;;;;;31.90;44.89;100631.88;21084873;28;20083;-61
2023/09/07 21:18:56;;;;;;;16.63;11.00;;;;;;;31.47;42.99;100644.78;21062149;28;20101;-60
2023/09/07 21:28:58;;;;;;;12.60;11.00;;;;;;;31.45;42.62;100650.00;21071993;28;20445;-60
2023/09/07 21:38:59;;;;;;;11.85;10.65;;;;;;;31.20;41.90;100647.22;21059672;28;20082;-60
2023/09/07 21:49:01;;;;;;;11.68;10.48;;;;;;;30.88;41.92;100654.72;21042023;28;20041;-61
2023/09/07 21:59:02;;;;;;;11.43;10.18;;;;;;;30.66;41.55;100653.22;21072876;28;20188;-62
2023/09/07 22:09:04;;;;;;;11.30;10.20;;;;;;;30.58;41.51;100679.59;21020715;28;20067;-63
2023/09/07 22:19:06;;;;;;;10.68;9.57;;;;;;;30.33;41.32;100668.28;21076511;28;20396;-60
2023/09/07 22:29:07;;;;;;;11.07;10.10;;;;;;;30.32;41.36;100714.59;21061774;28;20040;-59
2023/09/07 22:39:10;;;;;;;10.20;9.30;;;;;;;30.23;41.25;100719.53;21069698;28;20044;-59
2023/09/07 22:49:12;;;;;;;11.95;9.70;;;;;;;30.15;41.27;100716.81;21079410;28;20387;-60
2023/09/07 22:59:13;;;;;;;11.05;9.07;;;;;;;29.97;41.56;100724.66;21031355;28;20106;-60
2023/09/07 23:09:15;;;;;;;12.50;9.23;;;;;;;29.94;41.73;100719.69;21064419;28;20048;-60
2023/09/07 23:19:18;;;;;;;10.98;9.35;;;;;;;29.93;41.84;100743.44;21055175;28;20036;-60
2023/09/07 23:29:19;;;;;;;10.18;9.25;;;;;;;29.87;41.77;100752.13;21066479;28;20078;-60
2023/09/07 23:39:20;;;;;;;11.23;10.18;;;;;;;29.70;41.35;100757.09;21065846;28;20044;-60
2023/09/07 23:49:22;;;;;;;11.02;9.95;;;;;;;29.59;41.55;100745.38;21044078;28;20032;-60
2023/09/07 23:59:23;;;;;;;15.88;9.18;;;;;;;29.32;42.30;100707.28;21055044;28;20041;-62
